sensor_id;sensor_type;location;lat;lon;timestamp;P1;durP1;ratioP1;P2;durP2;ratioP2
50745;SDS011;36711;51.972;21.204;2024-03-08T00:01:34;69.40;;;29.40;;
50745;SDS011;36711;51.972;21.204;2024-03-08T00:04:01;65.60;;;29.20;;
50745;SDS011;36711;51.972;21.204;2024-03-08T00:06:28;65.30;;;29.10;;
50745;SDS011;36711;51.972;21.204;2024-03-08T00:08:54;65.20;;;30.20;;
50745;SDS011;36711;51.972;21.204;2024-03-08T00:11:22;68.30;;;30.50;;
50745;SDS011;36711;51.972;21.204;2024-03-08T00:13:52;59.00;;;25.30;;
50745;SDS011;36711;51.972;21.204;2024-03-08T00:16:19;62.50;;;25.40;;
50745;SDS011;36711;51.972;21.204;2024-03-08T00:18:46;57.00;;;25.60;;
50745;SDS011;36711;51.972;21.204;2024-03-08T00:21:13;59.10;;;26.30;;
50745;SDS011;36711;51.972;21.204;2024-03-08T00:23:41;56.70;;;25.20;;
50745;SDS011;36711;51.972;21.204;2024-03-08T00:26:08;60.90;;;25.90;;
50745;SDS011;36711;51.972;21.204;2024-03-08T00:28:35;56.20;;;24.60;;
50745;SDS011;36711;51.972;21.204;2024-03-08T00:31:02;54.50;;;24.10;;
50745;SDS011;36711;51.972;21.204;2024-03-08T00:33:29;51.20;;;23.30;;
50745;SDS011;36711;51.972;21.204;2024-03-08T00:35:56;55.60;;;26.10;;
50745;SDS011;36711;51.972;21.204;2024-03-08T00:38:23;67.40;;;28.00;;
50745;SDS011;36711;51.972;21.204;2024-03-08T00:40:50;57.50;;;27.40;;
50745;SDS011;36711;51.972;21.204;2024-03-08T00:43:17;60.50;;;28.10;;
50745;SDS011;36711;51.972;21.204;2024-03-08T00:45:44;63.00;;;28.50;;
50745;SDS011;36711;51.972;21.204;2024-03-08T00:48:11;63.10;;;27.90;;
50745;SDS011;36711;51.972;21.204;2024-03-08T00:50:38;66.30;;;29.40;;
50745;SDS011;36711;51.972;21.204;2024-03-08T00:53:04;61.80;;;27.70;;
50745;SDS011;36711;51.972;21.204;2024-03-08T00:55:32;62.80;;;28.40;;
50745;SDS011;36711;51.972;21.204;2024-03-08T00:57:59;56.60;;;27.60;;
50745;SDS011;36711;51.972;21.204;2024-03-08T01:00:27;60.70;;;27.60;;
50745;SDS011;36711;51.972;21.204;2024-03-08T01:02:54;61.90;;;27.70;;
50745;SDS011;36711;51.972;21.204;2024-03-08T01:05:21;67.00;;;26.40;;
50745;SDS011;36711;51.972;21.204;2024-03-08T01:07:49;56.70;;;24.40;;
50745;SDS011;36711;51.972;21.204;2024-03-08T01:10:16;61.60;;;26.60;;
50745;SDS011;36711;51.972;21.204;2024-03-08T01:12:42;61.40;;;25.30;;
50745;SDS011;36711;51.972;21.204;2024-03-08T01:15:09;70.60;;;29.10;;
50745;SDS011;36711;51.972;21.204;2024-03-08T01:17:37;73.70;;;29.80;;
50745;SDS011;36711;51.972;21.204;2024-03-08T01:20:04;81.10;;;32.10;;
50745;SDS011;36711;51.972;21.204;2024-03-08T01:22:31;68.60;;;28.10;;
50745;SDS011;36711;51.972;21.204;2024-03-08T01:24:58;65.80;;;27.70;;
50745;SDS011;36711;51.972;21.204;2024-03-08T01:27:25;66.80;;;30.60;;
50745;SDS011;36711;51.972;21.204;2024-03-08T01:29:52;65.20;;;28.80;;
50745;SDS011;36711;51.972;21.204;2024-03-08T01:32:19;77.50;;;32.50;;
50745;SDS011;36711;51.972;21.204;2024-03-08T01:34:46;85.10;;;34.70;;
50745;SDS011;36711;51.972;21.204;2024-03-08T01:37:12;80.40;;;33.60;;
50745;SDS011;36711;51.972;21.204;2024-03-08T01:39:41;79.30;;;34.80;;
50745;SDS011;36711;51.972;21.204;2024-03-08T01:42:07;76.40;;;33.30;;
50745;SDS011;36711;51.972;21.204;2024-03-08T01:44:34;75.30;;;32.70;;
50745;SDS011;36711;51.972;21.204;2024-03-08T01:47:01;79.80;;;33.50;;
50745;SDS011;36711;51.972;21.204;2024-03-08T01:49:28;75.60;;;33.50;;
50745;SDS011;36711;51.972;21.204;2024-03-08T01:51:55;78.30;;;34.00;;
50745;SDS011;36711;51.972;21.204;2024-03-08T01:54:22;74.60;;;33.10;;
50745;SDS011;36711;51.972;21.204;2024-03-08T01:56:50;64.00;;;29.60;;
50745;SDS011;36711;51.972;21.204;2024-03-08T01:59:19;69.60;;;30.30;;
50745;SDS011;36711;51.972;21.204;2024-03-08T02:01:46;76.50;;;31.30;;
50745;SDS011;36711;51.972;21.204;2024-03-08T02:04:14;72.20;;;32.90;;
50745;SDS011;36711;51.972;21.204;2024-03-08T02:06:40;81.00;;;30.90;;
50745;SDS011;36711;51.972;21.204;2024-03-08T02:09:07;76.00;;;30.50;;
50745;SDS011;36711;51.972;21.204;2024-03-08T02:11:34;69.10;;;29.60;;
50745;SDS011;36711;51.972;21.204;2024-03-08T02:14:03;73.90;;;30.40;;
50745;SDS011;36711;51.972;21.204;2024-03-08T02:16:30;69.70;;;28.80;;
50745;SDS011;36711;51.972;21.204;2024-03-08T02:18:57;74.10;;;32.90;;
50745;SDS011;36711;51.972;21.204;2024-03-08T02:21:23;80.70;;;34.10;;
50745;SDS011;36711;51.972;21.204;2024-03-08T02:23:50;81.00;;;34.70;;
50745;SDS011;36711;51.972;21.204;2024-03-08T02:26:18;84.60;;;35.60;;
50745;SDS011;36711;51.972;21.204;2024-03-08T02:28:45;79.20;;;34.50;;
50745;SDS011;36711;51.972;21.204;2024-03-08T02:31:12;81.80;;;36.30;;
50745;SDS011;36711;51.972;21.204;2024-03-08T02:33:39;84.40;;;34.90;;
50745;SDS011;36711;51.972;21.204;2024-03-08T02:36:06;74.90;;;34.60;;
50745;SDS011;36711;51.972;21.204;2024-03-08T02:38:33;81.30;;;34.00;;
50745;SDS011;36711;51.972;21.204;2024-03-08T02:41:00;76.00;;;32.80;;
50745;SDS011;36711;51.972;21.204;2024-03-08T02:43:27;75.30;;;32.10;;
50745;SDS011;36711;51.972;21.204;2024-03-08T02:45:54;80.60;;;34.70;;
50745;SDS011;36711;51.972;21.204;2024-03-08T02:48:21;66.20;;;29.40;;
50745;SDS011;36711;51.972;21.204;2024-03-08T02:50:48;67.60;;;30.60;;
50745;SDS011;36711;51.972;21.204;2024-03-08T02:53:18;76.20;;;31.50;;
50745;SDS011;36711;51.972;21.204;2024-03-08T02:55:45;69.20;;;31.40;;
50745;SDS011;36711;51.972;21.204;2024-03-08T02:58:13;72.00;;;31.50;;
50745;SDS011;36711;51.972;21.204;2024-03-08T03:00:41;67.00;;;28.50;;
50745;SDS011;36711;51.972;21.204;2024-03-08T03:03:08;67.10;;;28.80;;
50745;SDS011;36711;51.972;21.204;2024-03-08T03:05:35;68.40;;;28.90;;
50745;SDS011;36711;51.972;21.204;2024-03-08T03:08:02;71.60;;;31.60;;
50745;SDS011;36711;51.972;21.204;2024-03-08T03:10:36;81.40;;;33.60;;
50745;SDS011;36711;51.972;21.204;2024-03-08T03:13:03;75.90;;;35.70;;
50745;SDS011;36711;51.972;21.204;2024-03-08T03:15:33;90.60;;;36.70;;
50745;SDS011;36711;51.972;21.204;2024-03-08T03:18:03;87.40;;;38.20;;
50745;SDS011;36711;51.972;21.204;2024-03-08T03:20:35;80.30;;;37.20;;
50745;SDS011;36711;51.972;21.204;2024-03-08T03:23:08;93.20;;;40.30;;
50745;SDS011;36711;51.972;21.204;2024-03-08T03:25:35;86.50;;;38.50;;
50745;SDS011;36711;51.972;21.204;2024-03-08T03:28:05;87.30;;;38.30;;
50745;SDS011;36711;51.972;21.204;2024-03-08T03:30:34;88.40;;;39.90;;
50745;SDS011;36711;51.972;21.204;2024-03-08T03:33:01;90.40;;;40.70;;
50745;SDS011;36711;51.972;21.204;2024-03-08T03:35:34;88.80;;;40.60;;
50745;SDS011;36711;51.972;21.204;2024-03-08T03:38:03;88.60;;;41.00;;
50745;SDS011;36711;51.972;21.204;2024-03-08T03:40:36;82.00;;;38.50;;
50745;SDS011;36711;51.972;21.204;2024-03-08T03:43:04;83.40;;;37.70;;
50745;SDS011;36711;51.972;21.204;2024-03-08T03:45:32;86.80;;;37.40;;
50745;SDS011;36711;51.972;21.204;2024-03-08T03:48:07;75.80;;;33.00;;
50745;SDS011;36711;51.972;21.204;2024-03-08T03:50:37;84.10;;;36.10;;
50745;SDS011;36711;51.972;21.204;2024-03-08T03:53:05;89.70;;;36.50;;
50745;SDS011;36711;51.972;21.204;2024-03-08T03:55:36;85.50;;;34.00;;
50745;SDS011;36711;51.972;21.204;2024-03-08T03:58:07;76.20;;;32.90;;
50745;SDS011;36711;51.972;21.204;2024-03-08T04:00:37;84.40;;;32.00;;
50745;SDS011;36711;51.972;21.204;2024-03-08T04:03:04;78.90;;;33.20;;
50745;SDS011;36711;51.972;21.204;2024-03-08T04:05:31;81.00;;;31.80;;
50745;SDS011;36711;51.972;21.204;2024-03-08T04:07:58;80.30;;;31.00;;
50745;SDS011;36711;51.972;21.204;2024-03-08T04:10:25;75.50;;;30.70;;
50745;SDS011;36711;51.972;21.204;2024-03-08T04:12:52;76.50;;;33.10;;
50745;SDS011;36711;51.972;21.204;2024-03-08T04:15:26;72.40;;;32.20;;
50745;SDS011;36711;51.972;21.204;2024-03-08T04:17:53;75.30;;;33.70;;
50745;SDS011;36711;51.972;21.204;2024-03-08T04:20:21;90.80;;;39.00;;
50745;SDS011;36711;51.972;21.204;2024-03-08T04:22:49;91.50;;;38.60;;
50745;SDS011;36711;51.972;21.204;2024-03-08T04:25:16;86.70;;;37.90;;
50745;SDS011;36711;51.972;21.204;2024-03-08T04:27:43;89.90;;;38.70;;
50745;SDS011;36711;51.972;21.204;2024-03-08T04:30:11;89.10;;;38.90;;
50745;SDS011;36711;51.972;21.204;2024-03-08T04:32:39;86.50;;;36.50;;
50745;SDS011;36711;51.972;21.204;2024-03-08T04:35:08;78.30;;;36.70;;
50745;SDS011;36711;51.972;21.204;2024-03-08T04:37:35;84.00;;;35.80;;
50745;SDS011;36711;51.972;21.204;2024-03-08T04:40:03;81.80;;;35.20;;
50745;SDS011;36711;51.972;21.204;2024-03-08T04:42:30;88.20;;;36.40;;
50745;SDS011;36711;51.972;21.204;2024-03-08T04:44:59;84.10;;;34.80;;
50745;SDS011;36711;51.972;21.204;2024-03-08T04:47:27;75.70;;;33.40;;
50745;SDS011;36711;51.972;21.204;2024-03-08T04:49:54;77.40;;;34.30;;
50745;SDS011;36711;51.972;21.204;2024-03-08T04:52:23;70.70;;;31.30;;
50745;SDS011;36711;51.972;21.204;2024-03-08T04:54:50;75.30;;;32.90;;
50745;SDS011;36711;51.972;21.204;2024-03-08T04:57:17;79.70;;;32.10;;
50745;SDS011;36711;51.972;21.204;2024-03-08T04:59:45;77.60;;;32.10;;
50745;SDS011;36711;51.972;21.204;2024-03-08T05:02:13;72.90;;;30.60;;
50745;SDS011;36711;51.972;21.204;2024-03-08T05:04:41;85.50;;;32.80;;
50745;SDS011;36711;51.972;21.204;2024-03-08T05:07:09;78.90;;;30.10;;
50745;SDS011;36711;51.972;21.204;2024-03-08T05:09:36;66.40;;;30.00;;
50745;SDS011;36711;51.972;21.204;2024-03-08T05:12:04;74.20;;;32.40;;
50745;SDS011;36711;51.972;21.204;2024-03-08T05:14:32;70.40;;;31.70;;
50745;SDS011;36711;51.972;21.204;2024-03-08T05:17:01;85.30;;;34.80;;
50745;SDS011;36711;51.972;21.204;2024-03-08T05:19:28;80.70;;;34.50;;
50745;SDS011;36711;51.972;21.204;2024-03-08T05:22:01;79.90;;;34.90;;
50745;SDS011;36711;51.972;21.204;2024-03-08T05:24:29;88.50;;;36.30;;
50745;SDS011;36711;51.972;21.204;2024-03-08T05:26:57;94.10;;;38.50;;
50745;SDS011;36711;51.972;21.204;2024-03-08T05:29:28;95.30;;;39.40;;
50745;SDS011;36711;51.972;21.204;2024-03-08T05:31:56;83.50;;;37.20;;
50745;SDS011;36711;51.972;21.204;2024-03-08T05:34:24;81.30;;;34.50;;
50745;SDS011;36711;51.972;21.204;2024-03-08T05:36:52;86.60;;;35.60;;
50745;SDS011;36711;51.972;21.204;2024-03-08T05:39:22;74.60;;;33.90;;
50745;SDS011;36711;51.972;21.204;2024-03-08T05:41:58;77.50;;;34.60;;
50745;SDS011;36711;51.972;21.204;2024-03-08T05:44:26;79.80;;;34.30;;
50745;SDS011;36711;51.972;21.204;2024-03-08T05:46:56;75.40;;;32.70;;
50745;SDS011;36711;51.972;21.204;2024-03-08T05:49:29;74.10;;;30.80;;
50745;SDS011;36711;51.972;21.204;2024-03-08T05:52:00;70.40;;;29.80;;
50745;SDS011;36711;51.972;21.204;2024-03-08T05:54:26;74.60;;;30.50;;
50745;SDS011;36711;51.972;21.204;2024-03-08T05:56:53;69.20;;;31.90;;
50745;SDS011;36711;51.972;21.204;2024-03-08T05:59:21;73.00;;;31.20;;
50745;SDS011;36711;51.972;21.204;2024-03-08T06:01:51;86.60;;;38.10;;
50745;SDS011;36711;51.972;21.204;2024-03-08T06:04:18;77.70;;;37.10;;
50745;SDS011;36711;51.972;21.204;2024-03-08T06:06:46;92.90;;;42.10;;
50745;SDS011;36711;51.972;21.204;2024-03-08T06:09:24;87.70;;;41.50;;
50745;SDS011;36711;51.972;21.204;2024-03-08T06:11:51;89.10;;;42.50;;
50745;SDS011;36711;51.972;21.204;2024-03-08T06:14:21;91.20;;;42.00;;
50745;SDS011;36711;51.972;21.204;2024-03-08T06:16:48;87.60;;;42.50;;
50745;SDS011;36711;51.972;21.204;2024-03-08T06:19:17;87.20;;;39.90;;
50745;SDS011;36711;51.972;21.204;2024-03-08T06:21:44;83.60;;;40.20;;
50745;SDS011;36711;51.972;21.204;2024-03-08T06:24:12;84.30;;;39.30;;
50745;SDS011;36711;51.972;21.204;2024-03-08T06:26:39;94.70;;;47.90;;
50745;SDS011;36711;51.972;21.204;2024-03-08T06:29:07;110.00;;;61.10;;
50745;SDS011;36711;51.972;21.204;2024-03-08T06:31:34;119.90;;;68.90;;
50745;SDS011;36711;51.972;21.204;2024-03-08T06:34:03;130.90;;;74.60;;
50745;SDS011;36711;51.972;21.204;2024-03-08T06:36:37;118.60;;;61.20;;
50745;SDS011;36711;51.972;21.204;2024-03-08T06:39:12;80.90;;;38.80;;
50745;SDS011;36711;51.972;21.204;2024-03-08T06:41:39;64.60;;;31.80;;
50745;SDS011;36711;51.972;21.204;2024-03-08T06:44:07;66.40;;;29.80;;
50745;SDS011;36711;51.972;21.204;2024-03-08T06:46:35;61.20;;;29.40;;
50745;SDS011;36711;51.972;21.204;2024-03-08T06:49:08;62.00;;;28.00;;
50745;SDS011;36711;51.972;21.204;2024-03-08T06:51:41;61.20;;;29.50;;
50745;SDS011;36711;51.972;21.204;2024-03-08T06:54:08;71.60;;;31.90;;
50745;SDS011;36711;51.972;21.204;2024-03-08T06:56:39;82.30;;;36.10;;
50745;SDS011;36711;51.972;21.204;2024-03-08T06:59:07;100.70;;;38.40;;
50745;SDS011;36711;51.972;21.204;2024-03-08T07:01:39;85.10;;;35.40;;
50745;SDS011;36711;51.972;21.204;2024-03-08T07:04:15;74.10;;;35.10;;
50745;SDS011;36711;51.972;21.204;2024-03-08T07:06:52;64.50;;;31.50;;
50745;SDS011;36711;51.972;21.204;2024-03-08T07:09:53;65.80;;;31.80;;
50745;SDS011;36711;51.972;21.204;2024-03-08T07:12:26;70.80;;;32.30;;
50745;SDS011;36711;51.972;21.204;2024-03-08T07:14:57;64.60;;;31.30;;
50745;SDS011;36711;51.972;21.204;2024-03-08T07:17:25;60.10;;;31.00;;
50745;SDS011;36711;51.972;21.204;2024-03-08T07:19:55;67.70;;;32.30;;
50745;SDS011;36711;51.972;21.204;2024-03-08T07:22:27;57.40;;;28.70;;
50745;SDS011;36711;51.972;21.204;2024-03-08T07:24:54;69.40;;;32.00;;
50745;SDS011;36711;51.972;21.204;2024-03-08T07:27:46;66.00;;;30.30;;
50745;SDS011;36711;51.972;21.204;2024-03-08T07:30:17;61.10;;;28.50;;
50745;SDS011;36711;51.972;21.204;2024-03-08T07:33:05;59.00;;;29.30;;
50745;SDS011;36711;51.972;21.204;2024-03-08T07:35:34;65.20;;;32.00;;
50745;SDS011;36711;51.972;21.204;2024-03-08T07:38:09;64.10;;;32.60;;
50745;SDS011;36711;51.972;21.204;2024-03-08T07:41:03;64.00;;;32.80;;
50745;SDS011;36711;51.972;21.204;2024-03-08T07:43:31;66.10;;;33.50;;
50745;SDS011;36711;51.972;21.204;2024-03-08T07:46:01;68.00;;;34.40;;
50745;SDS011;36711;51.972;21.204;2024-03-08T07:48:30;71.50;;;35.50;;
50745;SDS011;36711;51.972;21.204;2024-03-08T07:51:00;72.50;;;37.00;;
50745;SDS011;36711;51.972;21.204;2024-03-08T07:53:28;76.80;;;36.80;;
50745;SDS011;36711;51.972;21.204;2024-03-08T07:55:57;77.80;;;38.00;;
50745;SDS011;36711;51.972;21.204;2024-03-08T07:58:25;74.00;;;36.60;;
50745;SDS011;36711;51.972;21.204;2024-03-08T08:00:54;80.90;;;38.50;;
50745;SDS011;36711;51.972;21.204;2024-03-08T08:03:21;82.70;;;38.10;;
50745;SDS011;36711;51.972;21.204;2024-03-08T08:05:50;72.40;;;37.60;;
50745;SDS011;36711;51.972;21.204;2024-03-08T08:08:17;75.60;;;36.70;;
50745;SDS011;36711;51.972;21.204;2024-03-08T08:10:49;74.20;;;37.10;;
50745;SDS011;36711;51.972;21.204;2024-03-08T08:13:20;80.90;;;34.50;;
50745;SDS011;36711;51.972;21.204;2024-03-08T08:15:47;56.20;;;27.30;;
50745;SDS011;36711;51.972;21.204;2024-03-08T08:18:15;59.70;;;27.30;;
50745;SDS011;36711;51.972;21.204;2024-03-08T08:20:48;56.20;;;26.10;;
50745;SDS011;36711;51.972;21.204;2024-03-08T08:23:21;56.20;;;23.50;;
50745;SDS011;36711;51.972;21.204;2024-03-08T08:25:55;57.50;;;26.00;;
50745;SDS011;36711;51.972;21.204;2024-03-08T08:28:22;55.20;;;25.80;;
50745;SDS011;36711;51.972;21.204;2024-03-08T08:30:54;53.30;;;26.90;;
50745;SDS011;36711;51.972;21.204;2024-03-08T08:33:30;55.10;;;25.70;;
50745;SDS011;36711;51.972;21.204;2024-03-08T08:36:00;48.20;;;24.30;;
50745;SDS011;36711;51.972;21.204;2024-03-08T08:38:30;50.70;;;24.70;;
50745;SDS011;36711;51.972;21.204;2024-03-08T08:40:56;44.90;;;23.10;;
50745;SDS011;36711;51.972;21.204;2024-03-08T08:43:23;45.90;;;23.50;;
50745;SDS011;36711;51.972;21.204;2024-03-08T08:45:52;51.80;;;22.30;;
50745;SDS011;36711;51.972;21.204;2024-03-08T08:48:21;37.00;;;20.10;;
50745;SDS011;36711;51.972;21.204;2024-03-08T08:50:47;42.40;;;21.20;;
50745;SDS011;36711;51.972;21.204;2024-03-08T08:53:17;35.50;;;20.20;;
50745;SDS011;36711;51.972;21.204;2024-03-08T08:55:44;40.70;;;20.60;;
50745;SDS011;36711;51.972;21.204;2024-03-08T08:58:36;38.80;;;20.00;;
50745;SDS011;36711;51.972;21.204;2024-03-08T09:01:01;39.00;;;21.30;;
50745;SDS011;36711;51.972;21.204;2024-03-08T09:03:28;38.00;;;19.20;;
50745;SDS011;36711;51.972;21.204;2024-03-08T09:05:56;44.00;;;20.20;;
50745;SDS011;36711;51.972;21.204;2024-03-08T09:08:25;36.50;;;19.30;;
50745;SDS011;36711;51.972;21.204;2024-03-08T09:10:55;37.90;;;18.20;;
50745;SDS011;36711;51.972;21.204;2024-03-08T09:13:25;36.30;;;18.40;;
50745;SDS011;36711;51.972;21.204;2024-03-08T09:15:58;34.60;;;17.20;;
50745;SDS011;36711;51.972;21.204;2024-03-08T09:18:25;31.90;;;16.80;;
